createdAt,value
2022-10-11T00:03:43.911Z,3.22
2022-10-11T00:08:47.474Z,2.90
2022-10-11T00:13:51.006Z,2.78
2022-10-11T00:18:57.001Z,3.10
2022-10-11T00:24:00.535Z,2.90
2022-10-11T00:29:04.088Z,2.90
2022-10-11T00:34:09.390Z,2.80
2022-10-11T00:39:14.402Z,2.97
2022-10-11T00:44:20.534Z,3.15
2022-10-11T00:49:34.568Z,3.38
2022-10-11T00:54:46.893Z,3.25
2022-10-11T00:59:53.090Z,3.50
2022-10-11T01:05:25.348Z,3.20
2022-10-11T01:10:22.553Z,2.90
2022-10-11T01:15:33.964Z,3.03
2022-10-11T01:20:53.360Z,3.30
2022-10-11T01:26:18.448Z,3.47
2022-10-11T01:31:28.432Z,3.70
2022-10-11T01:36:37.539Z,3.72
2022-10-11T01:41:46.799Z,3.50
2022-10-11T01:46:52.929Z,3.08
2022-10-11T01:52:00.526Z,3.20
2022-10-11T01:57:46.426Z,3.13
2022-10-11T02:03:02.071Z,3.55
2022-10-11T02:08:14.879Z,3.30
2022-10-11T02:13:24.755Z,3.55
2022-10-11T02:18:34.921Z,3.50
2022-10-11T02:23:43.233Z,3.60
2022-10-11T02:28:48.820Z,3.53
2022-10-11T02:33:59.006Z,3.45
2022-10-11T02:39:08.633Z,4.53
2022-10-11T02:44:16.895Z,3.53
2022-10-11T02:49:22.682Z,3.70
2022-10-11T02:54:27.344Z,4.00
2022-10-11T02:59:30.882Z,4.50
2022-10-11T03:04:37.012Z,5.13
2022-10-11T03:09:40.539Z,4.90
2022-10-11T03:14:44.089Z,4.45
2022-10-11T03:19:49.318Z,4.75
2022-10-11T03:24:52.868Z,3.92
2022-10-11T03:29:56.420Z,4.20
2022-10-11T03:35:02.536Z,3.80
2022-10-11T03:40:07.636Z,3.80
2022-10-11T03:45:11.828Z,4.03
2022-10-11T03:50:17.453Z,4.63
2022-10-11T03:55:24.533Z,4.72
2022-10-11T04:00:28.310Z,4.13
2022-10-11T04:05:33.555Z,4.60
2022-10-11T04:10:37.079Z,4.38
2022-10-11T04:15:40.812Z,4.18
2022-10-11T04:20:46.901Z,4.50
2022-10-11T04:25:50.398Z,4.07
2022-10-11T04:30:53.939Z,4.22
2022-10-11T04:35:59.100Z,5.10
2022-10-11T04:41:08.119Z,5.18
2022-10-11T04:46:11.846Z,5.05
2022-10-11T04:51:17.423Z,5.05
2022-10-11T04:56:21.112Z,5.28
2022-10-11T05:01:24.634Z,5.72
2022-10-11T05:06:30.146Z,5.50
2022-10-11T05:11:33.703Z,5.30
2022-10-11T05:16:37.306Z,5.55
2022-10-11T05:21:42.460Z,5.55
2022-10-11T05:26:46.664Z,5.67
2022-10-11T05:31:50.211Z,5.53
2022-10-11T05:36:55.395Z,5.45
2022-10-11T05:41:58.928Z,5.70
2022-10-11T05:47:02.461Z,5.90
2022-10-11T05:52:08.641Z,5.80
2022-10-11T05:57:12.941Z,5.57
2022-10-11T06:02:16.496Z,5.57
2022-10-11T06:07:21.664Z,6.20
2022-10-11T06:12:25.191Z,6.20
2022-10-11T06:17:28.828Z,5.65
2022-10-11T06:22:34.940Z,6.43
2022-10-11T06:27:38.493Z,6.38
2022-10-11T06:32:42.051Z,5.88
2022-10-11T06:37:47.220Z,6.47
2022-10-11T06:42:50.736Z,5.93
2022-10-11T06:47:54.324Z,5.78
2022-10-11T06:52:59.582Z,5.88
2022-10-11T06:58:03.130Z,6.60
2022-10-11T07:03:06.750Z,6.22
2022-10-11T07:08:12.001Z,6.20
2022-10-11T07:13:17.382Z,6.73
2022-10-11T07:18:21.125Z,6.22
2022-10-11T07:23:26.811Z,6.20
2022-10-11T07:28:30.447Z,6.63
2022-10-11T07:33:34.230Z,5.93
2022-10-11T07:38:41.281Z,6.05
2022-10-11T07:43:44.985Z,6.25
2022-10-11T07:48:48.746Z,6.68
2022-10-11T07:53:56.454Z,6.05
2022-10-11T07:59:01.721Z,5.80
2022-10-11T08:04:05.474Z,6.87
2022-10-11T08:09:10.686Z,6.35
2022-10-11T08:14:14.257Z,6.80
2022-10-11T08:19:18.044Z,6.43
2022-10-11T08:24:23.217Z,6.50
2022-10-11T08:29:26.737Z,6.20
2022-10-11T08:34:30.265Z,6.35
2022-10-11T08:39:36.453Z,6.40
2022-10-11T08:45:10.700Z,6.22
2022-10-11T08:50:08.846Z,6.57
2022-10-11T08:55:21.933Z,6.00
2022-10-11T09:00:31.628Z,6.18
2022-10-11T09:05:37.328Z,6.28
2022-10-11T09:10:59.314Z,6.53
2022-10-11T09:16:10.728Z,6.18
2022-10-11T09:21:24.152Z,5.85
2022-10-11T09:26:34.912Z,6.38
2022-10-11T09:31:38.648Z,6.47
2022-10-11T09:36:47.601Z,6.00
2022-10-11T09:41:57.748Z,5.75
2022-10-11T09:47:01.359Z,6.20
2022-10-11T09:52:07.751Z,5.65
2022-10-11T09:57:28.193Z,6.00
2022-10-11T10:02:39.342Z,5.63
2022-10-11T10:08:04.114Z,5.93
2022-10-11T10:13:21.135Z,6.25
2022-10-11T10:18:30.694Z,6.18
2022-10-11T10:23:37.456Z,5.60
2022-10-11T10:29:00.073Z,5.80
2022-10-11T10:34:07.108Z,5.53
2022-10-11T10:39:17.037Z,5.88
2022-10-11T10:44:22.193Z,5.57
2022-10-11T10:55:01.063Z,5.47
2022-10-11T11:00:14.698Z,5.10
2022-10-11T11:05:29.481Z,5.55
2022-10-11T11:10:37.966Z,5.88
2022-10-11T11:15:52.557Z,5.32
2022-10-11T11:21:09.934Z,5.53
2022-10-11T11:26:22.812Z,5.40
2022-10-11T11:32:07.300Z,5.60
2022-10-11T11:37:22.914Z,5.38
2022-10-11T11:42:31.762Z,5.40
2022-10-11T11:47:41.178Z,5.30
2022-10-11T11:52:48.142Z,5.85
2022-10-11T11:58:01.036Z,5.43
2022-10-11T12:03:15.627Z,5.45
2022-10-11T12:08:27.077Z,5.20
2022-10-11T12:13:35.434Z,5.13
2022-10-11T12:18:54.922Z,4.80
2022-10-11T12:24:13.946Z,5.13
2022-10-11T12:29:45.827Z,5.30
2022-10-11T12:34:51.007Z,4.97
2022-10-11T12:39:55.514Z,6.45
2022-10-11T12:45:31.203Z,6.50
2022-10-11T12:50:45.375Z,6.70
2022-10-11T12:55:58.335Z,6.05
2022-10-11T13:01:22.941Z,6.25
2022-10-11T13:06:29.933Z,6.38
2022-10-11T13:11:36.107Z,5.93
2022-10-11T13:21:58.905Z,6.30
2022-10-11T13:27:03.978Z,5.72
2022-10-11T13:32:12.483Z,5.20
2022-10-11T13:37:20.835Z,5.05
2022-10-11T13:42:29.334Z,5.03
2022-10-11T13:47:33.778Z,4.82
2022-10-11T13:52:51.143Z,4.20
2022-10-11T13:57:55.438Z,4.30
2022-10-11T14:03:02.045Z,4.72
2022-10-11T14:08:20.017Z,4.38
2022-10-11T14:13:26.417Z,4.18
2022-10-11T14:18:48.677Z,4.68
2022-10-11T14:23:55.461Z,4.57
2022-10-11T14:29:01.329Z,4.68
2022-10-11T14:34:05.415Z,4.55
2022-10-11T14:39:16.550Z,4.78
2022-10-11T14:44:20.637Z,4.97
2022-10-11T14:49:25.968Z,5.07
2022-10-11T14:54:32.345Z,5.00
2022-10-11T14:59:37.727Z,4.53
2022-10-11T15:04:41.261Z,5.30
2022-10-11T15:09:47.437Z,5.15
2022-10-11T15:19:53.757Z,5.30
2022-10-11T15:24:59.044Z,5.45
2022-10-11T15:30:02.576Z,5.00
2022-10-11T15:35:06.760Z,4.68
2022-10-11T15:40:19.745Z,4.20
2022-10-11T15:45:24.069Z,4.13
2022-10-11T15:50:29.716Z,3.42
2022-10-11T15:55:36.934Z,2.90
2022-10-11T16:00:40.961Z,3.22
2022-10-11T16:05:44.757Z,3.20
2022-10-11T16:10:50.729Z,3.60
2022-10-11T16:15:54.359Z,3.60
2022-10-11T16:20:58.137Z,3.88
2022-10-11T16:26:05.601Z,4.38
2022-10-11T16:31:10.026Z,4.40
2022-10-11T16:36:14.522Z,4.50
2022-10-11T16:41:19.684Z,5.03
2022-10-11T16:46:23.479Z,4.65
2022-10-11T16:51:27.029Z,5.18
2022-10-11T16:56:34.962Z,4.78
2022-10-11T17:01:42.890Z,5.32
2022-10-11T17:06:46.491Z,6.75
2022-10-11T17:11:51.957Z,5.95
2022-10-11T17:16:55.511Z,8.00
2022-10-11T17:21:59.937Z,7.53
2022-10-11T17:27:05.998Z,7.78
2022-10-11T17:32:09.593Z,7.93
2022-10-11T17:37:13.148Z,8.50
2022-10-11T17:42:18.339Z,7.28
2022-10-11T17:47:21.888Z,8.03
2022-10-11T17:52:25.477Z,9.30
2022-10-11T17:57:30.683Z,9.13
2022-10-11T18:02:34.332Z,8.98
2022-10-11T18:07:37.882Z,8.98
2022-10-11T18:12:43.046Z,8.90
2022-10-11T18:17:46.624Z,7.75
2022-10-11T18:22:51.195Z,9.40
2022-10-11T18:27:56.364Z,9.75
2022-10-11T18:32:59.886Z,10.40
2022-10-11T18:38:03.558Z,10.65
2022-10-11T18:43:08.742Z,10.35
2022-10-11T18:48:12.998Z,10.25
2022-10-11T18:53:16.547Z,9.70
2022-10-11T18:58:21.713Z,10.23
2022-10-11T19:03:25.235Z,10.00
2022-10-11T19:08:29.296Z,10.52
2022-10-11T19:13:34.861Z,11.10
2022-10-11T19:18:43.911Z,10.73
2022-10-11T19:23:49.540Z,10.77
2022-10-11T19:28:58.579Z,11.32
2022-10-11T19:34:02.256Z,10.73
2022-10-11T19:39:06.763Z,11.88
2022-10-11T19:44:12.823Z,10.67
2022-10-11T19:49:16.677Z,10.98
2022-10-11T19:54:20.274Z,11.25
2022-10-11T19:59:25.435Z,11.32
2022-10-11T20:09:52.529Z,10.93
2022-10-11T20:14:57.864Z,10.93
2022-10-11T20:25:04.338Z,10.85
2022-10-11T20:30:11.112Z,10.88
2022-10-11T20:35:14.756Z,10.38
2022-10-11T20:40:18.498Z,10.90
2022-10-11T20:45:23.654Z,10.43
2022-10-11T20:55:29.965Z,10.43
2022-10-11T21:00:35.126Z,10.50
2022-10-11T21:10:41.396Z,10.20
2022-10-11T21:15:46.598Z,10.50
2022-10-11T21:25:52.909Z,9.95
2022-10-11T21:31:04.226Z,11.00
2022-10-11T21:36:09.598Z,10.57
2022-10-11T21:41:14.744Z,9.52
2022-10-11T21:51:24.886Z,10.80
2022-10-11T21:56:28.813Z,10.60
2022-10-11T22:01:36.118Z,9.30
2022-10-11T22:06:39.754Z,10.45
2022-10-11T22:11:43.303Z,10.48
2022-10-11T22:16:48.546Z,10.15
2022-10-11T22:21:52.199Z,10.27
2022-10-11T22:26:55.841Z,10.52
2022-10-11T22:32:01.019Z,10.13
2022-10-11T22:42:07.575Z,9.98
2022-10-11T22:47:12.736Z,9.82
2022-10-11T22:57:19.075Z,11.07
2022-10-11T23:02:25.472Z,10.75
2022-10-11T23:07:28.998Z,10.25
2022-10-11T23:12:32.791Z,10.75
2022-10-11T23:17:38.471Z,11.23
2022-10-11T23:22:42.148Z,11.55
2022-10-11T23:27:45.686Z,11.13
2022-10-11T23:32:50.837Z,10.70
2022-10-11T23:42:57.310Z,11.63
2022-10-11T23:48:02.483Z,11.10
2022-10-11T23:58:08.803Z,11.10
